createdAt,value
2023-04-29T00:00:44.892Z,402.00
2023-04-29T00:01:30.459Z,400.00
2023-04-29T00:02:31.954Z,398.00
2023-04-29T00:03:30.631Z,398.00
2023-04-29T00:04:30.631Z,401.00
2023-04-29T00:05:30.600Z,400.00
2023-04-29T00:06:30.555Z,401.00
2023-04-29T00:07:30.530Z,400.00
2023-04-29T00:08:30.521Z,400.00
2023-04-29T00:09:30.614Z,401.00
2023-04-29T00:10:30.525Z,400.00
2023-04-29T00:11:30.574Z,401.00
2023-04-29T00:12:30.597Z,401.00
2023-04-29T00:13:30.614Z,401.00
2023-04-29T00:14:30.566Z,402.00
2023-04-29T00:15:30.572Z,400.00
2023-04-29T00:16:30.701Z,402.00
2023-04-29T00:17:30.617Z,404.00
2023-04-29T00:18:30.768Z,403.00
2023-04-29T00:19:30.654Z,402.00
2023-04-29T00:20:30.669Z,404.00
2023-04-29T00:21:30.673Z,404.00
2023-04-29T00:22:30.673Z,403.00
2023-04-29T00:23:30.687Z,401.00
2023-04-29T00:24:30.685Z,403.00
2023-04-29T00:25:30.739Z,403.00
2023-04-29T00:26:30.748Z,403.00
2023-04-29T00:27:30.751Z,401.00
2023-04-29T00:28:30.770Z,400.00
2023-04-29T00:29:30.921Z,400.00
2023-04-29T00:30:30.781Z,400.00
2023-04-29T00:31:30.892Z,401.00
2023-04-29T00:32:30.805Z,400.00
2023-04-29T00:33:30.842Z,398.00
2023-04-29T00:34:30.798Z,396.00
2023-04-29T00:35:30.857Z,397.00
2023-04-29T00:36:30.867Z,397.00
2023-04-29T00:37:30.893Z,397.00
2023-04-29T00:38:30.875Z,399.00
2023-04-29T00:39:30.901Z,399.00
2023-04-29T00:40:30.922Z,396.00
2023-04-29T00:41:30.960Z,396.00
2023-04-29T00:42:30.950Z,395.00
2023-04-29T00:43:30.957Z,394.00
2023-04-29T00:44:30.992Z,394.00
2023-04-29T00:45:31.053Z,395.00
2023-04-29T00:46:31.025Z,395.00
2023-04-29T00:47:31.063Z,394.00
2023-04-29T00:48:31.057Z,394.00
2023-04-29T00:49:31.053Z,391.00
2023-04-29T00:50:31.120Z,391.00
2023-04-29T00:51:31.119Z,392.00
2023-04-29T00:52:31.118Z,393.00
2023-04-29T00:53:31.205Z,394.00
2023-04-29T00:54:31.159Z,393.00
2023-04-29T00:55:31.216Z,391.00
2023-04-29T00:56:31.204Z,390.00
2023-04-29T00:57:31.225Z,392.00
2023-04-29T00:58:31.261Z,392.00
2023-04-29T00:59:31.284Z,392.00
2023-04-29T01:00:31.283Z,394.00
2023-04-29T01:01:31.320Z,395.00
2023-04-29T01:02:31.344Z,396.00
2023-04-29T01:03:31.611Z,394.00
2023-04-29T01:04:31.334Z,396.00
2023-04-29T01:05:31.380Z,396.00
2023-04-29T01:06:31.381Z,396.00
2023-04-29T01:07:31.392Z,395.00
2023-04-29T01:08:31.400Z,396.00
2023-04-29T01:09:31.405Z,396.00
2023-04-29T01:10:31.405Z,396.00
2023-04-29T01:11:31.446Z,396.00
2023-04-29T01:12:31.454Z,395.00
2023-04-29T01:13:31.462Z,395.00
2023-04-29T01:14:31.546Z,393.00
2023-04-29T01:15:31.508Z,393.00
2023-04-29T01:16:31.674Z,392.00
2023-04-29T01:17:31.585Z,391.00
2023-04-29T01:18:31.522Z,390.00
2023-04-29T01:19:31.563Z,390.00
2023-04-29T01:20:31.585Z,390.00
2023-04-29T01:21:31.645Z,389.00
2023-04-29T01:22:31.638Z,388.00
2023-04-29T01:23:31.642Z,386.00
2023-04-29T01:24:31.669Z,385.00
2023-04-29T01:25:31.669Z,387.00
2023-04-29T01:26:31.649Z,388.00
2023-04-29T01:27:31.746Z,388.00
2023-04-29T01:28:31.745Z,387.00
2023-04-29T01:29:31.697Z,388.00
2023-04-29T01:30:31.762Z,391.00
2023-04-29T01:31:31.791Z,392.00
2023-04-29T01:32:33.996Z,392.00
2023-04-29T01:33:31.788Z,392.00
2023-04-29T01:34:31.730Z,392.00
2023-04-29T01:35:31.737Z,393.00
2023-04-29T01:36:31.786Z,394.00
2023-04-29T01:37:31.743Z,395.00
2023-04-29T01:38:31.739Z,394.00
2023-04-29T01:39:31.754Z,393.00
2023-04-29T01:40:31.728Z,391.00
2023-04-29T01:41:31.729Z,392.00
2023-04-29T01:42:31.747Z,393.00
2023-04-29T01:43:31.699Z,391.00
2023-04-29T01:44:31.694Z,390.00
2023-04-29T01:45:31.705Z,390.00
2023-04-29T01:46:31.736Z,390.00
2023-04-29T01:47:31.682Z,389.00
2023-04-29T01:48:31.673Z,390.00
2023-04-29T01:49:31.685Z,390.00
2023-04-29T01:50:31.690Z,388.00
2023-04-29T01:51:31.611Z,386.00
2023-04-29T01:52:31.624Z,386.00
2023-04-29T01:53:31.609Z,386.00
2023-04-29T01:54:31.596Z,386.00
2023-04-29T01:55:31.643Z,386.00
2023-04-29T01:56:31.629Z,387.00
2023-04-29T01:57:31.627Z,388.00
2023-04-29T01:58:31.632Z,388.00
2023-04-29T01:59:31.876Z,389.00
2023-04-29T02:00:31.598Z,390.00
2023-04-29T02:01:31.559Z,389.00
2023-04-29T02:02:31.650Z,388.00
2023-04-29T02:03:31.706Z,388.00
2023-04-29T02:04:31.576Z,390.00
2023-04-29T02:05:31.594Z,389.00
2023-04-29T02:06:31.527Z,391.00
2023-04-29T02:07:31.518Z,390.00
2023-04-29T02:08:31.559Z,393.00
2023-04-29T02:09:31.515Z,391.00
2023-04-29T02:10:31.474Z,392.00
2023-04-29T02:11:31.514Z,392.00
2023-04-29T02:12:31.477Z,391.00
2023-04-29T02:13:31.479Z,393.00
2023-04-29T02:14:31.501Z,393.00
2023-04-29T02:15:31.481Z,391.00
2023-04-29T02:16:31.558Z,391.00
2023-04-29T02:17:31.512Z,390.00
2023-04-29T02:18:31.484Z,389.00
2023-04-29T02:19:31.453Z,390.00
2023-04-29T02:20:31.451Z,389.00
2023-04-29T02:21:31.440Z,391.00
2023-04-29T02:22:31.435Z,393.00
2023-04-29T02:23:31.405Z,393.00
2023-04-29T02:24:31.420Z,391.00
2023-04-29T02:25:31.390Z,390.00
2023-04-29T02:26:31.408Z,389.00
2023-04-29T02:27:31.430Z,389.00
2023-04-29T02:28:31.392Z,389.00
2023-04-29T02:29:31.365Z,390.00
2023-04-29T02:30:31.378Z,390.00
2023-04-29T02:31:31.396Z,390.00
2023-04-29T02:32:31.414Z,388.00
2023-04-29T02:33:31.369Z,388.00
2023-04-29T02:34:31.389Z,389.00
2023-04-29T02:35:31.363Z,390.00
2023-04-29T02:36:31.322Z,389.00
2023-04-29T02:37:31.326Z,388.00
2023-04-29T02:38:31.321Z,387.00
2023-04-29T02:39:31.340Z,389.00
2023-04-29T02:40:31.298Z,389.00
2023-04-29T02:41:31.309Z,389.00
2023-04-29T02:42:31.276Z,389.00
2023-04-29T02:43:31.274Z,390.00
2023-04-29T02:44:31.287Z,391.00
2023-04-29T02:45:31.310Z,390.00
2023-04-29T02:46:31.252Z,388.00
2023-04-29T02:47:31.281Z,388.00
2023-04-29T02:48:31.231Z,388.00
2023-04-29T02:49:31.285Z,389.00
2023-04-29T02:50:31.212Z,388.00
2023-04-29T02:51:31.257Z,389.00
2023-04-29T02:52:31.266Z,387.00
2023-04-29T02:53:31.199Z,386.00
2023-04-29T02:54:31.212Z,386.00
2023-04-29T02:55:31.217Z,386.00
2023-04-29T02:56:31.222Z,386.00
2023-04-29T02:57:31.249Z,386.00
2023-04-29T02:58:31.185Z,386.00
2023-04-29T02:59:31.172Z,387.00
2023-04-29T03:00:31.178Z,385.00
2023-04-29T03:01:31.216Z,383.00
2023-04-29T03:02:31.265Z,385.00
2023-04-29T03:03:31.269Z,386.00
2023-04-29T03:04:31.160Z,387.00
2023-04-29T03:05:31.101Z,387.00
2023-04-29T03:06:31.092Z,388.00
2023-04-29T03:07:31.130Z,388.00
2023-04-29T03:08:31.088Z,389.00
2023-04-29T03:09:31.093Z,389.00
2023-04-29T03:10:31.055Z,389.00
2023-04-29T03:11:31.531Z,390.00
2023-04-29T03:12:31.129Z,391.00
2023-04-29T03:13:31.135Z,390.00
2023-04-29T03:14:31.145Z,390.00
2023-04-29T03:15:31.166Z,387.00
2023-04-29T03:16:31.240Z,385.00
2023-04-29T03:17:31.291Z,387.00
2023-04-29T03:18:31.234Z,387.00
2023-04-29T03:19:31.267Z,390.00
2023-04-29T03:20:31.336Z,390.00
2023-04-29T03:21:31.323Z,388.00
2023-04-29T03:22:31.369Z,387.00
2023-04-29T03:23:31.402Z,387.00
2023-04-29T03:24:31.460Z,388.00
2023-04-29T03:25:31.458Z,388.00
2023-04-29T03:26:31.482Z,388.00
2023-04-29T03:27:31.528Z,389.00
2023-04-29T03:28:31.547Z,390.00
2023-04-29T03:29:31.568Z,390.00
2023-04-29T03:30:31.653Z,389.00
2023-04-29T03:31:31.647Z,389.00
2023-04-29T03:32:31.706Z,390.00
2023-04-29T03:33:31.731Z,388.00
2023-04-29T03:34:31.743Z,388.00
2023-04-29T03:35:31.803Z,387.00
2023-04-29T03:36:31.785Z,388.00
2023-04-29T03:37:31.856Z,387.00
2023-04-29T03:38:31.872Z,387.00
2023-04-29T03:39:31.921Z,388.00
2023-04-29T03:40:31.939Z,390.00
2023-04-29T03:41:31.948Z,393.00
2023-04-29T03:42:31.987Z,393.00
2023-04-29T03:43:31.980Z,393.00
2023-04-29T03:44:32.012Z,394.00
2023-04-29T03:45:32.079Z,395.00
2023-04-29T03:46:32.155Z,393.00
2023-04-29T03:47:32.186Z,391.00
2023-04-29T03:48:32.191Z,394.00
2023-04-29T03:49:32.186Z,393.00
2023-04-29T03:50:32.238Z,394.00
2023-04-29T03:51:32.265Z,396.00
2023-04-29T03:52:32.281Z,395.00
2023-04-29T03:53:32.370Z,396.00
2023-04-29T03:54:32.331Z,394.00
2023-04-29T03:55:32.375Z,393.00
2023-04-29T03:56:32.423Z,391.00
2023-04-29T03:57:32.455Z,389.00
2023-04-29T03:58:32.457Z,389.00
2023-04-29T03:59:32.494Z,389.00
2023-04-29T04:00:32.557Z,389.00
2023-04-29T04:01:32.607Z,391.00
2023-04-29T04:02:32.761Z,390.00
2023-04-29T04:03:32.821Z,389.00
2023-04-29T04:04:32.995Z,389.00
2023-04-29T04:05:32.725Z,388.00
2023-04-29T04:06:32.753Z,387.00
2023-04-29T04:07:32.777Z,390.00
2023-04-29T04:08:32.833Z,389.00
2023-04-29T04:09:32.850Z,389.00
2023-04-29T04:10:32.903Z,390.00
2023-04-29T04:11:32.908Z,389.00
2023-04-29T04:12:32.963Z,389.00
2023-04-29T04:13:32.966Z,386.00
2023-04-29T04:14:32.997Z,386.00
2023-04-29T04:15:33.021Z,388.00
2023-04-29T04:16:33.213Z,387.00
2023-04-29T04:17:33.155Z,386.00
2023-04-29T04:18:33.149Z,389.00
2023-04-29T04:19:33.154Z,388.00
2023-04-29T04:20:33.221Z,385.00
2023-04-29T04:21:33.239Z,384.00
2023-04-29T04:22:33.281Z,386.00
2023-04-29T04:23:33.293Z,386.00
2023-04-29T04:24:33.307Z,387.00
2023-04-29T04:25:33.319Z,387.00
2023-04-29T04:26:33.369Z,388.00
2023-04-29T04:27:33.447Z,386.00
2023-04-29T04:28:33.417Z,386.00
2023-04-29T04:29:33.425Z,386.00
2023-04-29T04:30:33.429Z,387.00
2023-04-29T04:31:33.590Z,387.00
2023-04-29T04:32:33.540Z,389.00
2023-04-29T04:33:33.525Z,391.00
2023-04-29T04:34:33.575Z,390.00
2023-04-29T04:35:33.573Z,391.00
2023-04-29T04:36:33.618Z,391.00
2023-04-29T04:37:33.657Z,391.00
2023-04-29T04:38:33.690Z,391.00
2023-04-29T04:39:33.711Z,391.00
2023-04-29T04:40:40.541Z,390.00
2023-04-29T04:41:33.694Z,392.00
2023-04-29T04:42:33.689Z,392.00
2023-04-29T04:43:33.685Z,393.00
2023-04-29T04:44:33.770Z,392.00
2023-04-29T04:45:33.740Z,390.00
2023-04-29T04:46:33.661Z,389.00
2023-04-29T04:47:33.728Z,387.00
2023-04-29T04:48:33.654Z,388.00
2023-04-29T04:49:33.682Z,388.00
2023-04-29T04:50:33.645Z,387.00
2023-04-29T04:51:33.659Z,387.00
2023-04-29T04:52:33.646Z,387.00
2023-04-29T04:53:33.594Z,388.00
2023-04-29T04:54:33.605Z,388.00
2023-04-29T04:55:33.635Z,387.00
2023-04-29T04:56:33.623Z,387.00
2023-04-29T04:57:33.615Z,385.00
2023-04-29T04:58:33.596Z,385.00
2023-04-29T04:59:33.595Z,383.00
2023-04-29T05:00:33.549Z,383.00
2023-04-29T05:01:33.604Z,384.00
2023-04-29T05:02:33.735Z,385.00
2023-04-29T05:03:33.875Z,385.00
2023-04-29T05:04:33.587Z,383.00
2023-04-29T05:05:33.575Z,383.00
2023-04-29T05:06:33.548Z,384.00
2023-04-29T05:07:33.562Z,385.00
2023-04-29T05:08:33.555Z,386.00
2023-04-29T05:09:33.509Z,385.00
2023-04-29T05:10:33.504Z,383.00
2023-04-29T05:11:33.507Z,384.00
2023-04-29T05:12:33.552Z,384.00
2023-04-29T05:13:33.511Z,385.00
2023-04-29T05:14:33.463Z,387.00
2023-04-29T05:15:33.509Z,388.00
2023-04-29T05:16:33.526Z,388.00
2023-04-29T05:17:33.470Z,388.00
2023-04-29T05:18:33.434Z,388.00
2023-04-29T05:19:33.451Z,387.00
2023-04-29T05:20:33.427Z,385.00
2023-04-29T05:21:33.426Z,387.00
2023-04-29T05:22:33.454Z,387.00
2023-04-29T05:23:33.461Z,385.00
2023-04-29T05:24:33.388Z,384.00
2023-04-29T05:25:33.402Z,384.00
2023-04-29T05:26:33.395Z,387.00
2023-04-29T05:27:33.413Z,389.00
2023-04-29T05:28:33.393Z,390.00
2023-04-29T05:29:33.354Z,390.00
2023-04-29T05:30:33.352Z,391.00
2023-04-29T05:31:33.420Z,389.00
2023-04-29T05:32:33.403Z,389.00
2023-04-29T05:33:33.375Z,389.00
2023-04-29T05:34:33.356Z,390.00
2023-04-29T05:35:33.344Z,389.00
2023-04-29T05:36:33.359Z,388.00
2023-04-29T05:37:33.360Z,385.00
2023-04-29T05:38:33.287Z,384.00
2023-04-29T05:39:33.322Z,383.00
2023-04-29T05:40:33.288Z,383.00
2023-04-29T05:41:33.285Z,386.00
2023-04-29T05:42:33.287Z,389.00
2023-04-29T05:43:33.325Z,389.00
2023-04-29T05:44:33.314Z,388.00
2023-04-29T05:45:33.340Z,388.00
2023-04-29T05:46:33.439Z,387.00
2023-04-29T05:47:33.404Z,387.00
2023-04-29T05:48:33.379Z,388.00
2023-04-29T05:49:33.448Z,386.00
2023-04-29T05:50:33.394Z,386.00
2023-04-29T05:51:33.438Z,386.00
2023-04-29T05:52:33.444Z,386.00
2023-04-29T05:53:33.487Z,386.00
2023-04-29T05:54:33.467Z,387.00
2023-04-29T05:55:33.442Z,390.00
2023-04-29T05:56:33.478Z,389.00
2023-04-29T05:57:33.493Z,386.00
2023-04-29T05:58:33.481Z,386.00
2023-04-29T05:59:33.479Z,387.00
2023-04-29T06:00:33.486Z,386.00
2023-04-29T06:01:33.497Z,388.00
2023-04-29T06:02:35.893Z,386.00
2023-04-29T06:03:34.676Z,387.00
2023-04-29T06:04:33.675Z,386.00
2023-04-29T06:05:34.008Z,385.00
2023-04-29T06:06:33.617Z,386.00
2023-04-29T06:07:33.484Z,387.00
2023-04-29T06:08:33.482Z,390.00
2023-04-29T06:09:33.476Z,391.00
2023-04-29T06:10:33.504Z,390.00
2023-04-29T06:11:33.428Z,390.00
2023-04-29T06:12:33.468Z,391.00
2023-04-29T06:13:33.437Z,391.00
2023-04-29T06:14:33.415Z,392.00
2023-04-29T06:15:33.440Z,392.00
2023-04-29T06:16:33.441Z,390.00
2023-04-29T06:17:33.426Z,392.00
2023-04-29T06:18:33.439Z,392.00
2023-04-29T06:19:33.431Z,390.00
2023-04-29T06:20:34.897Z,390.00
2023-04-29T06:21:33.371Z,390.00
2023-04-29T06:22:33.407Z,391.00
2023-04-29T06:23:33.402Z,391.00
2023-04-29T06:24:33.367Z,391.00
2023-04-29T06:25:33.313Z,391.00
2023-04-29T06:26:33.368Z,391.00
2023-04-29T06:27:33.384Z,392.00
2023-04-29T06:28:33.374Z,393.00
2023-04-29T06:29:33.307Z,393.00
2023-04-29T06:30:33.328Z,394.00
2023-04-29T06:31:33.337Z,394.00
2023-04-29T06:32:33.351Z,392.00
2023-04-29T06:33:33.302Z,392.00
2023-04-29T06:34:33.295Z,391.00
2023-04-29T06:35:33.337Z,391.00
2023-04-29T06:36:33.308Z,389.00
2023-04-29T06:37:34.100Z,390.00
2023-04-29T06:38:33.288Z,388.00
2023-04-29T06:39:33.291Z,389.00
2023-04-29T06:40:33.263Z,388.00
2023-04-29T06:41:33.280Z,388.00
2023-04-29T06:42:33.314Z,391.00
2023-04-29T06:43:33.291Z,390.00
2023-04-29T06:44:33.233Z,391.00
2023-04-29T06:45:33.219Z,391.00
2023-04-29T06:46:33.217Z,390.00
2023-04-29T06:47:33.248Z,390.00
2023-04-29T06:48:33.234Z,389.00
2023-04-29T06:49:33.185Z,389.00
2023-04-29T06:50:33.191Z,388.00
2023-04-29T06:51:33.158Z,387.00
2023-04-29T06:52:33.189Z,387.00
2023-04-29T06:53:33.143Z,389.00
2023-04-29T06:54:33.186Z,389.00
2023-04-29T06:55:33.158Z,388.00
2023-04-29T06:56:33.172Z,389.00
2023-04-29T06:57:33.176Z,388.00
2023-04-29T06:58:33.241Z,390.00
2023-04-29T06:59:33.217Z,388.00
2023-04-29T07:00:33.212Z,389.00
2023-04-29T07:01:33.242Z,391.00
2023-04-29T07:02:33.279Z,391.00
2023-04-29T07:03:33.341Z,391.00
2023-04-29T07:04:33.240Z,392.00
2023-04-29T07:05:33.265Z,392.00
2023-04-29T07:06:33.276Z,390.00
2023-04-29T07:07:33.313Z,390.00
2023-04-29T07:08:33.445Z,391.00
2023-04-29T07:09:33.419Z,392.00
2023-04-29T07:10:33.491Z,392.00
2023-04-29T07:11:33.616Z,390.00
2023-04-29T07:12:33.644Z,388.00
2023-04-29T07:13:33.655Z,386.00
2023-04-29T07:14:33.707Z,389.00
2023-04-29T07:15:33.754Z,388.00
2023-04-29T07:16:33.787Z,391.00
2023-04-29T07:17:33.883Z,392.00
2023-04-29T07:18:33.888Z,391.00
2023-04-29T07:19:33.952Z,388.00
2023-04-29T07:20:33.968Z,387.00
2023-04-29T07:21:34.015Z,387.00
2023-04-29T07:22:34.095Z,388.00
2023-04-29T07:23:34.109Z,389.00
2023-04-29T07:24:34.162Z,390.00
2023-04-29T07:25:34.217Z,387.00
2023-04-29T07:26:34.221Z,386.00
2023-04-29T07:27:34.300Z,388.00
2023-04-29T07:28:34.260Z,388.00
2023-04-29T07:29:34.314Z,390.00
2023-04-29T07:30:34.373Z,393.00
2023-04-29T07:31:35.419Z,394.00
2023-04-29T07:32:34.398Z,394.00
2023-04-29T07:33:34.334Z,394.00
2023-04-29T07:34:34.332Z,395.00
2023-04-29T07:35:34.314Z,395.00
2023-04-29T07:36:34.344Z,397.00
2023-04-29T07:37:34.363Z,397.00
2023-04-29T07:38:34.316Z,396.00
2023-04-29T07:39:34.311Z,397.00
2023-04-29T07:40:34.326Z,398.00
2023-04-29T07:41:34.298Z,399.00
2023-04-29T07:42:34.309Z,398.00
2023-04-29T07:43:34.319Z,397.00
2023-04-29T07:44:34.269Z,399.00
2023-04-29T07:45:34.259Z,396.00
2023-04-29T07:46:34.281Z,395.00
2023-04-29T07:47:34.339Z,393.00
2023-04-29T07:48:34.288Z,394.00
2023-04-29T07:49:34.251Z,393.00
2023-04-29T07:50:34.205Z,394.00
2023-04-29T07:51:34.268Z,392.00
2023-04-29T07:52:34.250Z,390.00
2023-04-29T07:53:34.224Z,393.00
2023-04-29T07:54:34.222Z,392.00
2023-04-29T07:55:34.182Z,391.00
2023-04-29T07:56:34.150Z,392.00
2023-04-29T07:57:34.157Z,393.00
2023-04-29T07:58:34.208Z,392.00
2023-04-29T07:59:34.217Z,393.00
2023-04-29T08:00:34.172Z,393.00
2023-04-29T08:01:34.192Z,391.00
2023-04-29T08:02:34.300Z,391.00
2023-04-29T08:03:34.279Z,392.00
2023-04-29T08:04:34.234Z,392.00
2023-04-29T08:05:34.525Z,391.00
2023-04-29T08:06:34.118Z,390.00
2023-04-29T08:07:34.108Z,391.00
2023-04-29T08:08:34.115Z,390.00
2023-04-29T08:09:34.102Z,389.00
2023-04-29T08:10:34.124Z,389.00
2023-04-29T08:11:34.064Z,387.00
2023-04-29T08:12:34.104Z,388.00
2023-04-29T08:13:34.069Z,389.00
2023-04-29T08:14:34.068Z,392.00
2023-04-29T08:15:34.053Z,394.00
2023-04-29T08:16:34.107Z,397.00
2023-04-29T08:17:34.105Z,398.00
2023-04-29T08:18:34.137Z,398.00
2023-04-29T08:19:34.058Z,397.00
2023-04-29T08:20:34.060Z,396.00
2023-04-29T08:21:33.999Z,397.00
2023-04-29T08:22:34.002Z,397.00
2023-04-29T08:23:34.001Z,399.00
2023-04-29T08:24:33.975Z,398.00
2023-04-29T08:25:33.966Z,397.00
2023-04-29T08:26:33.993Z,396.00
2023-04-29T08:27:33.983Z,397.00
2023-04-29T08:28:33.995Z,399.00
2023-04-29T08:29:33.958Z,399.00
2023-04-29T08:30:33.967Z,398.00
2023-04-29T08:31:34.052Z,396.00
2023-04-29T08:32:34.009Z,396.00
2023-04-29T08:33:33.941Z,394.00
2023-04-29T08:34:34.020Z,394.00
2023-04-29T08:35:33.901Z,397.00
2023-04-29T08:36:33.943Z,397.00
2023-04-29T08:37:33.910Z,397.00
2023-04-29T08:38:33.923Z,397.00
2023-04-29T08:39:33.929Z,397.00
2023-04-29T08:40:33.870Z,397.00
2023-04-29T08:41:33.884Z,396.00
2023-04-29T08:42:33.889Z,396.00
2023-04-29T08:43:33.903Z,392.00
2023-04-29T08:44:33.905Z,391.00
2023-04-29T08:45:33.953Z,394.00
2023-04-29T08:46:33.878Z,395.00
2023-04-29T08:47:34.028Z,396.00
2023-04-29T08:48:34.236Z,395.00
2023-04-29T08:49:33.942Z,396.00
2023-04-29T08:50:33.956Z,394.00
2023-04-29T08:51:33.965Z,393.00
2023-04-29T08:52:33.961Z,391.00
2023-04-29T08:53:33.918Z,389.00
2023-04-29T08:54:33.906Z,390.00
2023-04-29T08:55:33.914Z,393.00
2023-04-29T08:56:33.918Z,394.00
2023-04-29T08:57:33.945Z,395.00
2023-04-29T08:58:33.897Z,395.00
2023-04-29T08:59:33.956Z,394.00
2023-04-29T09:00:33.944Z,394.00
2023-04-29T09:01:34.019Z,393.00
2023-04-29T09:02:33.979Z,394.00
2023-04-29T09:03:34.006Z,393.00
2023-04-29T09:04:33.989Z,393.00
2023-04-29T09:05:33.952Z,392.00
2023-04-29T09:06:33.945Z,388.00
2023-04-29T09:07:33.904Z,388.00
2023-04-29T09:08:33.913Z,388.00
2023-04-29T09:09:33.925Z,390.00
2023-04-29T09:10:33.927Z,391.00
2023-04-29T09:11:34.031Z,393.00
2023-04-29T09:12:33.992Z,392.00
2023-04-29T09:13:33.957Z,391.00
2023-04-29T09:14:33.919Z,390.00
2023-04-29T09:15:34.013Z,389.00
2023-04-29T09:16:34.109Z,391.00
2023-04-29T09:17:34.014Z,389.00
2023-04-29T09:18:34.041Z,386.00
2023-04-29T09:19:33.986Z,384.00
2023-04-29T09:20:33.990Z,384.00
2023-04-29T09:21:33.986Z,385.00
2023-04-29T09:22:34.005Z,386.00
2023-04-29T09:23:33.996Z,388.00
2023-04-29T09:24:34.001Z,388.00
2023-04-29T09:25:34.026Z,387.00
2023-04-29T09:26:33.974Z,388.00
2023-04-29T09:27:33.983Z,386.00
2023-04-29T09:28:34.005Z,388.00
2023-04-29T09:29:34.052Z,388.00
2023-04-29T09:30:34.001Z,386.00
2023-04-29T09:31:34.064Z,386.00
2023-04-29T09:32:34.033Z,387.00
2023-04-29T09:33:34.084Z,387.00
2023-04-29T09:34:34.095Z,387.00
2023-04-29T09:35:34.145Z,386.00
2023-04-29T09:36:34.175Z,388.00
2023-04-29T09:37:34.216Z,387.00
2023-04-29T09:38:34.228Z,386.00
2023-04-29T09:39:34.284Z,384.00
2023-04-29T09:40:43.524Z,384.00
2023-04-29T09:41:43.205Z,382.00
2023-04-29T09:42:34.242Z,381.00
2023-04-29T09:44:53.321Z,379.00
2023-04-29T09:45:53.141Z,375.00
2023-04-29T09:46:53.044Z,376.00
2023-04-29T09:47:53.023Z,374.00
2023-04-29T09:48:53.078Z,374.00
2023-04-29T09:49:52.990Z,376.00
2023-04-29T09:50:53.025Z,376.00
2023-04-29T09:51:52.999Z,378.00
2023-04-29T09:52:53.005Z,377.00
2023-04-29T09:53:53.258Z,379.00
2023-04-29T09:54:53.192Z,377.00
2023-04-29T10:00:27.368Z,374.00
2023-04-29T10:01:27.547Z,376.00
2023-04-29T10:02:27.542Z,375.00
2023-04-29T10:03:27.475Z,373.00
2023-04-29T10:04:27.533Z,373.00
2023-04-29T10:05:27.596Z,373.00
2023-04-29T10:06:27.562Z,371.00
2023-04-29T10:07:27.623Z,371.00
2023-04-29T10:08:27.633Z,373.00
2023-04-29T10:09:27.617Z,373.00
2023-04-29T10:10:28.930Z,372.00
2023-04-29T10:11:27.735Z,373.00
2023-04-29T10:12:27.708Z,373.00
2023-04-29T10:13:27.809Z,373.00
2023-04-29T10:14:27.779Z,375.00
2023-04-29T10:15:27.868Z,376.00
2023-04-29T10:16:27.970Z,374.00
2023-04-29T10:17:27.937Z,376.00
2023-04-29T10:18:28.037Z,378.00
2023-04-29T10:19:28.051Z,377.00
2023-04-29T10:20:28.105Z,378.00
2023-04-29T10:21:28.143Z,375.00
2023-04-29T10:22:28.227Z,374.00
2023-04-29T10:23:28.232Z,372.00
2023-04-29T10:24:28.262Z,373.00
2023-04-29T10:25:28.330Z,376.00
2023-04-29T10:26:28.386Z,375.00
2023-04-29T10:27:28.469Z,374.00
2023-04-29T10:28:28.471Z,374.00
2023-04-29T10:29:28.516Z,375.00
2023-04-29T10:30:28.578Z,375.00
2023-04-29T10:31:28.695Z,376.00
2023-04-29T10:32:30.555Z,374.00
2023-04-29T10:33:29.753Z,375.00
2023-04-29T10:34:28.643Z,377.00
2023-04-29T10:35:28.616Z,379.00
2023-04-29T10:36:28.650Z,379.00
2023-04-29T10:37:28.588Z,377.00
2023-04-29T10:38:28.639Z,375.00
2023-04-29T10:39:28.647Z,374.00
2023-04-29T10:40:28.599Z,373.00
2023-04-29T10:41:28.657Z,372.00
2023-04-29T10:42:28.758Z,373.00
2023-04-29T10:43:28.794Z,375.00
2023-04-29T10:44:28.794Z,376.00
2023-04-29T10:45:28.927Z,376.00
2023-04-29T10:46:29.131Z,376.00
2023-04-29T10:47:29.083Z,376.00
2023-04-29T10:48:29.117Z,377.00
2023-04-29T10:49:29.127Z,381.00
2023-04-29T10:50:29.199Z,380.00
2023-04-29T10:51:29.268Z,380.00
2023-04-29T10:52:29.337Z,379.00
2023-04-29T10:53:29.398Z,377.00
2023-04-29T10:54:29.476Z,379.00
2023-04-29T10:55:29.529Z,379.00
2023-04-29T10:56:29.573Z,378.00
2023-04-29T10:57:29.643Z,378.00
2023-04-29T10:58:29.659Z,378.00
2023-04-29T10:59:29.807Z,378.00
2023-04-29T11:00:29.780Z,379.00
2023-04-29T11:01:29.920Z,379.00
2023-04-29T11:02:29.947Z,379.00
2023-04-29T11:03:30.087Z,380.00
2023-04-29T11:04:30.088Z,379.00
2023-04-29T11:05:30.102Z,380.00
2023-04-29T11:06:30.155Z,380.00
2023-04-29T11:07:30.168Z,379.00
2023-04-29T11:08:30.286Z,377.00
2023-04-29T11:09:30.363Z,375.00
2023-04-29T11:10:30.405Z,373.00
2023-04-29T11:11:30.412Z,371.00
2023-04-29T11:12:30.511Z,370.00
2023-04-29T11:13:30.735Z,372.00
2023-04-29T11:14:30.579Z,373.00
2023-04-29T11:15:30.636Z,373.00
2023-04-29T11:16:30.861Z,372.00
2023-04-29T11:17:30.788Z,374.00
2023-04-29T11:18:30.821Z,376.00
2023-04-29T11:19:30.866Z,376.00
2023-04-29T11:20:30.908Z,375.00
2023-04-29T11:21:31.020Z,375.00
2023-04-29T11:22:31.097Z,374.00
2023-04-29T11:23:31.125Z,375.00
2023-04-29T11:24:31.153Z,374.00
2023-04-29T11:25:31.223Z,375.00
2023-04-29T11:26:31.310Z,373.00
2023-04-29T11:27:31.336Z,374.00
2023-04-29T11:28:31.405Z,375.00
2023-04-29T11:29:31.468Z,377.00
2023-04-29T11:30:31.514Z,378.00
2023-04-29T11:31:31.562Z,380.00
2023-04-29T11:32:31.714Z,383.00
2023-04-29T11:33:31.717Z,384.00
2023-04-29T11:34:31.718Z,384.00
2023-04-29T11:35:31.807Z,383.00
2023-04-29T11:36:31.835Z,380.00
2023-04-29T11:37:32.014Z,378.00
2023-04-29T11:38:31.984Z,378.00
2023-04-29T11:39:32.022Z,382.00
2023-04-29T11:40:32.060Z,383.00
2023-04-29T11:41:32.160Z,382.00
2023-04-29T11:42:32.253Z,381.00
2023-04-29T11:43:32.305Z,379.00
2023-04-29T11:44:32.386Z,379.00
2023-04-29T11:45:32.373Z,381.00
2023-04-29T11:46:32.490Z,383.00
2023-04-29T11:47:32.567Z,383.00
2023-04-29T11:48:32.568Z,385.00
2023-04-29T11:49:32.542Z,386.00
2023-04-29T11:50:32.613Z,388.00
2023-04-29T11:51:32.708Z,386.00
2023-04-29T11:52:32.697Z,385.00
2023-04-29T11:53:32.747Z,382.00
2023-04-29T11:54:32.747Z,381.00
2023-04-29T11:55:32.798Z,382.00
2023-04-29T11:56:32.751Z,379.00
2023-04-29T11:57:32.800Z,380.00
2023-04-29T11:58:32.813Z,378.00
2023-04-29T11:59:32.818Z,377.00
2023-04-29T12:00:32.840Z,377.00
2023-04-29T12:01:32.862Z,380.00
2023-04-29T12:02:32.986Z,378.00
2023-04-29T12:03:33.606Z,381.00
2023-04-29T12:04:32.984Z,384.00
2023-04-29T12:05:32.908Z,381.00
2023-04-29T12:06:32.861Z,380.00
2023-04-29T12:07:32.937Z,381.00
2023-04-29T12:08:32.882Z,383.00
2023-04-29T12:09:32.869Z,383.00
2023-04-29T12:10:32.860Z,384.00
2023-04-29T12:11:32.896Z,384.00
2023-04-29T12:12:32.912Z,382.00
2023-04-29T12:13:32.921Z,381.00
2023-04-29T12:14:32.875Z,381.00
2023-04-29T12:15:32.937Z,380.00
2023-04-29T12:16:33.024Z,381.00
2023-04-29T12:17:32.947Z,380.00
2023-04-29T12:18:33.020Z,379.00
2023-04-29T12:19:32.973Z,380.00
2023-04-29T12:20:33.033Z,381.00
2023-04-29T12:21:32.983Z,383.00
2023-04-29T12:22:33.045Z,384.00
2023-04-29T12:23:33.049Z,384.00
2023-04-29T12:24:33.073Z,385.00
2023-04-29T12:25:33.070Z,385.00
2023-04-29T12:26:33.065Z,385.00
2023-04-29T12:27:33.136Z,386.00
2023-04-29T12:28:33.094Z,386.00
2023-04-29T12:29:33.091Z,388.00
2023-04-29T12:30:33.136Z,386.00
2023-04-29T12:31:33.187Z,386.00
2023-04-29T12:32:33.256Z,387.00
2023-04-29T12:33:33.205Z,387.00
2023-04-29T12:34:33.199Z,387.00